sensor_id;sensor_type;location;lat;lon;timestamp;pressure;altitude;pressure_sealevel;temperature;humidity
62011;BME280;47967;51.756;10.174;2023-02-19T05:02:36;99565.69;;;10.64;80.57
62011;BME280;47967;51.756;10.174;2023-02-19T05:06:38;99574.84;;;10.63;80.38
62011;BME280;47967;51.756;10.174;2023-02-19T05:10:41;99572.13;;;10.63;80.02
62011;BME280;47967;51.756;10.174;2023-02-19T05:14:43;99567.34;;;10.59;80.58
62011;BME280;47967;51.756;10.174;2023-02-19T05:18:47;99574.41;;;10.66;80.31
62011;BME280;47967;51.756;10.174;2023-02-19T05:22:50;99574.63;;;10.71;79.76
62011;BME280;47967;51.756;10.174;2023-02-19T05:26:52;99575.25;;;10.67;79.89
62011;BME280;47967;51.756;10.174;2023-02-19T05:30:55;99588.31;;;10.70;79.60
62011;BME280;47967;51.756;10.174;2023-02-19T05:34:59;99602.00;;;10.55;80.65
62011;BME280;47967;51.756;10.174;2023-02-19T05:39:02;99601.75;;;10.43;82.52
62011;BME280;47967;51.756;10.174;2023-02-19T05:43:06;99613.72;;;10.34;82.89
62011;BME280;47967;51.756;10.174;2023-02-19T05:47:09;99605.03;;;10.32;83.64
62011;BME280;47967;51.756;10.174;2023-02-19T05:51:15;99614.25;;;10.09;84.35
62011;BME280;47967;51.756;10.174;2023-02-19T05:55:18;99621.78;;;9.78;84.78
62011;BME280;47967;51.756;10.174;2023-02-19T05:59:23;99627.38;;;9.84;85.15
62011;BME280;47967;51.756;10.174;2023-02-19T06:03:25;99636.81;;;9.66;84.57
62011;BME280;47967;51.756;10.174;2023-02-19T06:07:30;99620.66;;;9.66;84.56
62011;BME280;47967;51.756;10.174;2023-02-19T06:11:33;99619.56;;;9.89;84.46
62011;BME280;47967;51.756;10.174;2023-02-19T06:15:36;99629.84;;;9.78;83.58
62011;BME280;47967;51.756;10.174;2023-02-19T06:19:39;99616.25;;;9.93;83.01
62011;BME280;47967;51.756;10.174;2023-02-19T06:23:43;99649.22;;;9.60;83.43
62011;BME280;47967;51.756;10.174;2023-02-19T06:27:46;99683.59;;;8.20;85.76
62011;BME280;47967;51.756;10.174;2023-02-19T06:31:48;99694.31;;;7.60;88.84
62011;BME280;47967;51.756;10.174;2023-02-19T06:35:51;99702.31;;;7.07;89.00
62011;BME280;47967;51.756;10.174;2023-02-19T06:39:55;99697.13;;;6.82;89.27
62011;BME280;47967;51.756;10.174;2023-02-19T06:43:58;99733.59;;;6.60;89.28
62011;BME280;47967;51.756;10.174;2023-02-19T06:48:01;99750.75;;;6.43;89.13
62011;BME280;47967;51.756;10.174;2023-02-19T06:52:03;99749.28;;;6.32;89.54
62011;BME280;47967;51.756;10.174;2023-02-19T06:56:21;99764.69;;;6.30;89.39
62011;BME280;47967;51.756;10.174;2023-02-19T07:00:25;99772.44;;;6.16;89.93
62011;BME280;47967;51.756;10.174;2023-02-19T07:04:27;99796.53;;;6.16;90.22
62011;BME280;47967;51.756;10.174;2023-02-19T07:08:30;99808.28;;;6.07;89.76
62011;BME280;47967;51.756;10.174;2023-02-19T07:12:34;99830.41;;;6.01;90.41
62011;BME280;47967;51.756;10.174;2023-02-19T07:16:36;99818.66;;;5.93;90.87
62011;BME280;47967;51.756;10.174;2023-02-19T07:20:39;99829.19;;;5.95;90.47
62011;BME280;47967;51.756;10.174;2023-02-19T07:24:42;99843.13;;;5.99;90.26
62011;BME280;47967;51.756;10.174;2023-02-19T07:28:50;99853.81;;;5.99;89.13
62011;BME280;47967;51.756;10.174;2023-02-19T07:32:52;99867.88;;;6.17;89.25
62011;BME280;47967;51.756;10.174;2023-02-19T07:36:55;99885.78;;;6.08;88.57
62011;BME280;47967;51.756;10.174;2023-02-19T07:40:59;99899.81;;;5.94;86.64
62011;BME280;47967;51.756;10.174;2023-02-19T07:45:04;99904.53;;;6.00;86.65
62011;BME280;47967;51.756;10.174;2023-02-19T07:49:06;99917.44;;;6.05;86.94
62011;BME280;47967;51.756;10.174;2023-02-19T07:53:09;99933.44;;;5.97;86.30
62011;BME280;47967;51.756;10.174;2023-02-19T07:57:11;99954.59;;;6.08;86.57
62011;BME280;47967;51.756;10.174;2023-02-19T08:01:17;99960.31;;;6.13;86.91
62011;BME280;47967;51.756;10.174;2023-02-19T08:05:41;99978.53;;;6.09;87.02
62011;BME280;47967;51.756;10.174;2023-02-19T08:09:44;99986.44;;;5.68;87.91
62011;BME280;47967;51.756;10.174;2023-02-19T08:14:06;100007.09;;;5.41;90.96
62011;BME280;47967;51.756;10.174;2023-02-19T08:18:11;99992.91;;;5.49;92.34
62011;BME280;47967;51.756;10.174;2023-02-19T08:22:14;100004.94;;;5.45;91.84
62011;BME280;47967;51.756;10.174;2023-02-19T08:26:17;100018.31;;;5.45;91.51
62011;BME280;47967;51.756;10.174;2023-02-19T08:30:20;100015.22;;;5.58;91.68
62011;BME280;47967;51.756;10.174;2023-02-19T08:34:24;100035.47;;;5.69;91.10
62011;BME280;47967;51.756;10.174;2023-02-19T08:38:27;100030.63;;;5.72;91.03
62011;BME280;47967;51.756;10.174;2023-02-19T08:42:29;100050.19;;;5.65;90.44
62011;BME280;47967;51.756;10.174;2023-02-19T08:46:32;100063.56;;;5.65;90.14
62011;BME280;47967;51.756;10.174;2023-02-19T08:50:36;100074.22;;;5.56;90.04
62011;BME280;47967;51.756;10.174;2023-02-19T08:54:39;100070.81;;;5.81;89.27
62011;BME280;47967;51.756;10.174;2023-02-19T08:58:42;100082.00;;;5.76;88.45
62011;BME280;47967;51.756;10.174;2023-02-19T09:02:44;100092.06;;;5.82;88.51
62011;BME280;47967;51.756;10.174;2023-02-19T09:06:49;100096.94;;;5.79;86.97
62011;BME280;47967;51.756;10.174;2023-02-19T09:10:58;100092.94;;;5.48;85.93
62011;BME280;47967;51.756;10.174;2023-02-19T09:15:00;100101.63;;;5.50;85.86
62011;BME280;47967;51.756;10.174;2023-02-19T09:19:03;100120.53;;;5.49;84.87
62011;BME280;47967;51.756;10.174;2023-02-19T09:23:07;100138.44;;;5.83;84.58
62011;BME280;47967;51.756;10.174;2023-02-19T09:27:13;100132.22;;;5.74;82.56
62011;BME280;47967;51.756;10.174;2023-02-19T09:31:16;100141.94;;;5.75;81.56
62011;BME280;47967;51.756;10.174;2023-02-19T09:35:19;100134.72;;;6.02;81.47
62011;BME280;47967;51.756;10.174;2023-02-19T09:39:23;100141.28;;;5.81;80.27
62011;BME280;47967;51.756;10.174;2023-02-19T09:43:26;100150.44;;;6.05;80.45
62011;BME280;47967;51.756;10.174;2023-02-19T09:47:31;100152.22;;;6.31;80.85
62011;BME280;47967;51.756;10.174;2023-02-19T09:51:36;100159.47;;;6.04;80.51
62011;BME280;47967;51.756;10.174;2023-02-19T09:55:43;100155.84;;;6.13;81.05
62011;BME280;47967;51.756;10.174;2023-02-19T09:59:49;100158.91;;;6.27;80.26
62011;BME280;47967;51.756;10.174;2023-02-19T10:03:52;100170.06;;;6.65;80.33
62011;BME280;47967;51.756;10.174;2023-02-19T10:07:55;100202.06;;;6.66;78.60
62011;BME280;47967;51.756;10.174;2023-02-19T10:12:00;100208.31;;;6.92;77.63
62011;BME280;47967;51.756;10.174;2023-02-19T10:16:04;100223.91;;;6.88;76.96
62011;BME280;47967;51.756;10.174;2023-02-19T10:20:12;100227.44;;;6.97;76.38
62011;BME280;47967;51.756;10.174;2023-02-19T10:24:19;100219.22;;;6.90;74.66
62011;BME280;47967;51.756;10.174;2023-02-19T10:28:27;100227.66;;;7.12;74.20
62011;BME280;47967;51.756;10.174;2023-02-19T10:32:30;100255.91;;;6.73;73.09
62011;BME280;47967;51.756;10.174;2023-02-19T10:36:36;100260.78;;;6.86;71.36
62011;BME280;47967;51.756;10.174;2023-02-19T10:40:43;100275.22;;;6.85;71.38
62011;BME280;47967;51.756;10.174;2023-02-19T10:44:51;100267.22;;;7.18;71.18
62011;BME280;47967;51.756;10.174;2023-02-19T10:48:57;100286.16;;;7.08;69.98
62011;BME280;47967;51.756;10.174;2023-02-19T10:53:00;100298.56;;;7.09;69.51
62011;BME280;47967;51.756;10.174;2023-02-19T10:57:21;100298.28;;;7.37;68.97
62011;BME280;47967;51.756;10.174;2023-02-19T11:01:31;100297.97;;;7.65;71.23
62011;BME280;47967;51.756;10.174;2023-02-19T11:05:35;100313.22;;;7.56;71.41
62011;BME280;47967;51.756;10.174;2023-02-19T11:09:40;100318.25;;;7.34;70.47
62011;BME280;47967;51.756;10.174;2023-02-19T11:13:46;100315.09;;;7.56;70.48
62011;BME280;47967;51.756;10.174;2023-02-19T11:17:59;100321.47;;;7.96;68.50
62011;BME280;47967;51.756;10.174;2023-02-19T11:22:18;100320.94;;;7.67;65.68
62011;BME280;47967;51.756;10.174;2023-02-19T11:26:23;100312.59;;;7.79;65.74
62011;BME280;47967;51.756;10.174;2023-02-19T11:30:34;100304.97;;;8.15;65.10
62011;BME280;47967;51.756;10.174;2023-02-19T11:34:38;100316.06;;;8.04;64.21
62011;BME280;47967;51.756;10.174;2023-02-19T11:38:41;100313.53;;;8.19;62.39
62011;BME280;47967;51.756;10.174;2023-02-19T11:42:48;100323.13;;;7.97;63.22
62011;BME280;47967;51.756;10.174;2023-02-19T11:47:21;100317.78;;;7.72;65.25
62011;BME280;47967;51.756;10.174;2023-02-19T11:51:40;100331.84;;;7.91;65.88
62011;BME280;47967;51.756;10.174;2023-02-19T11:56:01;100324.47;;;7.84;64.89
62011;BME280;47967;51.756;10.174;2023-02-19T12:00:20;100333.19;;;8.11;63.49
62011;BME280;47967;51.756;10.174;2023-02-19T12:04:46;100332.53;;;8.09;64.57
62011;BME280;47967;51.756;10.174;2023-02-19T12:09:15;100337.25;;;8.07;65.00
62011;BME280;47967;51.756;10.174;2023-02-19T12:13:25;100328.84;;;7.85;65.18
62011;BME280;47967;51.756;10.174;2023-02-19T12:17:49;100338.75;;;8.18;64.30
62011;BME280;47967;51.756;10.174;2023-02-19T12:22:05;100337.00;;;8.50;64.04
62011;BME280;47967;51.756;10.174;2023-02-19T12:26:21;100330.28;;;8.46;63.41
62011;BME280;47967;51.756;10.174;2023-02-19T12:30:39;100333.00;;;8.13;62.67
62011;BME280;47967;51.756;10.174;2023-02-19T12:35:22;100338.38;;;8.21;63.33
62011;BME280;47967;51.756;10.174;2023-02-19T12:39:35;100332.50;;;8.34;62.36
62011;BME280;47967;51.756;10.174;2023-02-19T12:43:45;100339.88;;;8.24;62.43
62011;BME280;47967;51.756;10.174;2023-02-19T12:47:58;100350.81;;;8.14;62.96
62011;BME280;47967;51.756;10.174;2023-02-19T12:52:07;100360.06;;;8.36;62.48
62011;BME280;47967;51.756;10.174;2023-02-19T12:56:16;100358.38;;;8.18;62.50
62011;BME280;47967;51.756;10.174;2023-02-19T13:00:28;100348.75;;;8.57;62.91
62011;BME280;47967;51.756;10.174;2023-02-19T13:04:41;100363.91;;;8.50;62.67
62011;BME280;47967;51.756;10.174;2023-02-19T13:08:46;100378.53;;;8.31;63.78
62011;BME280;47967;51.756;10.174;2023-02-19T13:13:11;100387.41;;;8.40;63.63
62011;BME280;47967;51.756;10.174;2023-02-19T13:17:21;100399.06;;;8.15;64.39
62011;BME280;47967;51.756;10.174;2023-02-19T13:21:28;100406.88;;;7.67;65.17
62011;BME280;47967;51.756;10.174;2023-02-19T13:25:55;100401.41;;;8.02;64.03
62011;BME280;47967;51.756;10.174;2023-02-19T13:30:21;100399.19;;;8.30;63.17
62011;BME280;47967;51.756;10.174;2023-02-19T13:34:42;100394.31;;;8.26;62.36
62011;BME280;47967;51.756;10.174;2023-02-19T13:38:48;100390.28;;;8.55;62.40
62011;BME280;47967;51.756;10.174;2023-02-19T13:42:53;100405.75;;;8.53;62.16
62011;BME280;47967;51.756;10.174;2023-02-19T13:46:57;100415.00;;;8.00;61.44
62011;BME280;47967;51.756;10.174;2023-02-19T13:55:51;100409.28;;;7.79;62.60
62011;BME280;47967;51.756;10.174;2023-02-19T13:59:55;100414.31;;;7.90;62.15
62011;BME280;47967;51.756;10.174;2023-02-19T14:04:07;100416.50;;;7.95;61.38
62011;BME280;47967;51.756;10.174;2023-02-19T14:08:46;100403.22;;;8.26;62.75
62011;BME280;47967;51.756;10.174;2023-02-19T14:12:49;100409.44;;;8.10;62.61
62011;BME280;47967;51.756;10.174;2023-02-19T14:17:03;100417.00;;;8.15;62.53
62011;BME280;47967;51.756;10.174;2023-02-19T14:21:14;100417.19;;;8.05;62.35
62011;BME280;47967;51.756;10.174;2023-02-19T14:25:27;100406.44;;;8.13;62.04
62011;BME280;47967;51.756;10.174;2023-02-19T14:29:30;100397.69;;;8.11;62.74
62011;BME280;47967;51.756;10.174;2023-02-19T14:33:34;100399.53;;;8.02;62.74
62011;BME280;47967;51.756;10.174;2023-02-19T14:37:38;100400.38;;;8.28;63.15
62011;BME280;47967;51.756;10.174;2023-02-19T14:41:44;100407.06;;;8.57;61.91
62011;BME280;47967;51.756;10.174;2023-02-19T14:45:50;100414.81;;;8.68;61.56
62011;BME280;47967;51.756;10.174;2023-02-19T14:49:57;100410.94;;;8.54;61.58
62011;BME280;47967;51.756;10.174;2023-02-19T14:54:09;100412.13;;;8.52;61.48
62011;BME280;47967;51.756;10.174;2023-02-19T14:58:20;100414.81;;;8.52;61.59
62011;BME280;47967;51.756;10.174;2023-02-19T15:02:25;100434.16;;;8.22;61.81
62011;BME280;47967;51.756;10.174;2023-02-19T15:06:29;100447.06;;;8.10;62.76
62011;BME280;47967;51.756;10.174;2023-02-19T15:10:34;100437.66;;;7.81;62.74
62011;BME280;47967;51.756;10.174;2023-02-19T15:14:39;100432.44;;;7.80;62.81
62011;BME280;47967;51.756;10.174;2023-02-19T15:18:43;100430.59;;;7.97;62.23
62011;BME280;47967;51.756;10.174;2023-02-19T15:22:46;100438.81;;;7.87;62.57
62011;BME280;47967;51.756;10.174;2023-02-19T15:26:50;100438.16;;;7.77;62.72
62011;BME280;47967;51.756;10.174;2023-02-19T15:31:11;100426.84;;;7.57;62.68
62011;BME280;47967;51.756;10.174;2023-02-19T15:35:20;100417.75;;;7.49;62.45
62011;BME280;47967;51.756;10.174;2023-02-19T15:39:29;100417.91;;;7.40;63.23
62011;BME280;47967;51.756;10.174;2023-02-19T15:43:37;100421.88;;;7.27;63.37
62011;BME280;47967;51.756;10.174;2023-02-19T15:47:49;100426.38;;;7.18;63.94
62011;BME280;47967;51.756;10.174;2023-02-19T15:51:55;100423.72;;;7.18;64.51
62011;BME280;47967;51.756;10.174;2023-02-19T15:56:02;100426.34;;;7.10;64.72
62011;BME280;47967;51.756;10.174;2023-02-19T16:00:13;100430.31;;;6.98;64.81
62011;BME280;47967;51.756;10.174;2023-02-19T16:04:18;100425.53;;;6.83;65.60
62011;BME280;47967;51.756;10.174;2023-02-19T16:08:28;100429.78;;;6.60;68.35
62011;BME280;47967;51.756;10.174;2023-02-19T16:12:31;100422.88;;;6.31;70.49
62011;BME280;47967;51.756;10.174;2023-02-19T16:16:35;100427.41;;;6.12;72.41
62011;BME280;47967;51.756;10.174;2023-02-19T16:20:45;100424.94;;;5.83;73.50
62011;BME280;47967;51.756;10.174;2023-02-19T16:24:51;100426.25;;;5.60;74.55
62011;BME280;47967;51.756;10.174;2023-02-19T16:28:54;100432.22;;;5.26;75.69
62011;BME280;47967;51.756;10.174;2023-02-19T16:33:32;100439.84;;;5.21;76.06
62011;BME280;47967;51.756;10.174;2023-02-19T16:37:39;100446.91;;;5.12;76.03
62011;BME280;47967;51.756;10.174;2023-02-19T16:42:11;100447.94;;;5.11;76.68
62011;BME280;47967;51.756;10.174;2023-02-19T16:46:15;100456.13;;;5.00;76.94
62011;BME280;47967;51.756;10.174;2023-02-19T16:50:20;100457.97;;;5.00;77.32
62011;BME280;47967;51.756;10.174;2023-02-19T16:54:25;100485.56;;;4.90;77.30
62011;BME280;47967;51.756;10.174;2023-02-19T16:58:27;100475.75;;;4.81;77.12
62011;BME280;47967;51.756;10.174;2023-02-19T17:02:30;100484.59;;;4.81;77.08
62011;BME280;47967;51.756;10.174;2023-02-19T17:06:34;100483.03;;;4.89;77.70
62011;BME280;47967;51.756;10.174;2023-02-19T17:10:39;100499.09;;;4.89;77.64
62011;BME280;47967;51.756;10.174;2023-02-19T17:14:42;100507.94;;;4.89;78.42
62011;BME280;47967;51.756;10.174;2023-02-19T17:18:44;100511.47;;;4.90;78.50
62011;BME280;47967;51.756;10.174;2023-02-19T17:22:47;100504.38;;;5.08;78.91
62011;BME280;47967;51.756;10.174;2023-02-19T17:26:50;100519.06;;;5.32;77.95
62011;BME280;47967;51.756;10.174;2023-02-19T17:30:53;100529.13;;;5.20;76.64
62011;BME280;47967;51.756;10.174;2023-02-19T17:34:55;100521.09;;;5.20;77.03
62011;BME280;47967;51.756;10.174;2023-02-19T17:38:59;100525.75;;;5.18;77.48
62011;BME280;47967;51.756;10.174;2023-02-19T17:43:04;100524.00;;;5.27;77.46
62011;BME280;47967;51.756;10.174;2023-02-19T17:47:07;100526.84;;;5.25;77.40
62011;BME280;47967;51.756;10.174;2023-02-19T17:51:09;100527.75;;;5.44;76.59
62011;BME280;47967;51.756;10.174;2023-02-19T17:55:14;100531.47;;;5.61;76.22
62011;BME280;47967;51.756;10.174;2023-02-19T17:59:20;100524.78;;;5.47;75.93
62011;BME280;47967;51.756;10.174;2023-02-19T18:03:24;100527.34;;;5.39;75.95
62011;BME280;47967;51.756;10.174;2023-02-19T18:07:27;100527.75;;;5.44;76.09
62011;BME280;47967;51.756;10.174;2023-02-19T18:11:29;100526.13;;;5.61;75.46
62011;BME280;47967;51.756;10.174;2023-02-19T18:15:33;100518.28;;;5.77;75.14
62011;BME280;47967;51.756;10.174;2023-02-19T18:19:36;100501.09;;;5.52;74.93
62011;BME280;47967;51.756;10.174;2023-02-19T18:23:38;100519.28;;;5.49;75.25
62011;BME280;47967;51.756;10.174;2023-02-19T18:27:41;100515.94;;;5.37;76.12
62011;BME280;47967;51.756;10.174;2023-02-19T18:31:45;100523.38;;;5.43;76.11
62011;BME280;47967;51.756;10.174;2023-02-19T18:35:48;100530.97;;;5.48;76.75
62011;BME280;47967;51.756;10.174;2023-02-19T18:39:51;100529.38;;;5.55;77.04
62011;BME280;47967;51.756;10.174;2023-02-19T18:43:54;100532.91;;;5.55;76.58
62011;BME280;47967;51.756;10.174;2023-02-19T18:47:57;100533.25;;;5.70;76.29
62011;BME280;47967;51.756;10.174;2023-02-19T18:52:00;100532.34;;;5.80;75.66
62011;BME280;47967;51.756;10.174;2023-02-19T18:56:03;100537.81;;;5.60;75.60
62011;BME280;47967;51.756;10.174;2023-02-19T19:00:14;100536.97;;;5.59;75.93
62011;BME280;47967;51.756;10.174;2023-02-19T19:04:18;100543.16;;;5.60;76.56
62011;BME280;47967;51.756;10.174;2023-02-19T19:08:21;100541.19;;;5.62;75.91
62011;BME280;47967;51.756;10.174;2023-02-19T19:12:23;100538.84;;;5.77;75.88
62011;BME280;47967;51.756;10.174;2023-02-19T19:16:27;100543.38;;;5.76;75.76
62011;BME280;47967;51.756;10.174;2023-02-19T19:20:31;100546.44;;;5.82;75.94
62011;BME280;47967;51.756;10.174;2023-02-19T19:24:34;100549.16;;;5.72;75.93
62011;BME280;47967;51.756;10.174;2023-02-19T19:28:37;100541.72;;;5.66;76.30
62011;BME280;47967;51.756;10.174;2023-02-19T19:32:41;100545.91;;;5.78;76.80
62011;BME280;47967;51.756;10.174;2023-02-19T19:36:45;100550.69;;;5.74;76.64
62011;BME280;47967;51.756;10.174;2023-02-19T19:40:47;100554.19;;;5.85;76.44
62011;BME280;47967;51.756;10.174;2023-02-19T19:44:50;100552.97;;;5.97;76.18
62011;BME280;47967;51.756;10.174;2023-02-19T19:48:52;100547.13;;;5.84;75.74
62011;BME280;47967;51.756;10.174;2023-02-19T19:52:56;100556.81;;;5.95;75.83
62011;BME280;47967;51.756;10.174;2023-02-19T19:56:59;100559.06;;;5.89;75.78
62011;BME280;47967;51.756;10.174;2023-02-19T20:01:02;100563.75;;;5.87;75.71
62011;BME280;47967;51.756;10.174;2023-02-19T20:05:06;100565.03;;;5.83;76.12
62011;BME280;47967;51.756;10.174;2023-02-19T20:09:10;100557.78;;;5.93;75.95
62011;BME280;47967;51.756;10.174;2023-02-19T20:13:14;100558.09;;;6.18;75.50
62011;BME280;47967;51.756;10.174;2023-02-19T20:17:17;100560.75;;;6.18;75.08
62011;BME280;47967;51.756;10.174;2023-02-19T20:21:20;100565.06;;;6.29;75.17
62011;BME280;47967;51.756;10.174;2023-02-19T20:25:23;100571.13;;;6.31;74.69
62011;BME280;47967;51.756;10.174;2023-02-19T20:29:27;100575.41;;;6.24;74.93
62011;BME280;47967;51.756;10.174;2023-02-19T20:33:30;100574.81;;;6.02;75.51
62011;BME280;47967;51.756;10.174;2023-02-19T20:37:35;100569.25;;;6.14;76.15
62011;BME280;47967;51.756;10.174;2023-02-19T20:41:43;100577.66;;;6.19;75.98
62011;BME280;47967;51.756;10.174;2023-02-19T20:45:53;100563.59;;;6.17;76.14
62011;BME280;47967;51.756;10.174;2023-02-19T20:49:55;100559.16;;;6.25;75.73
62011;BME280;47967;51.756;10.174;2023-02-19T20:53:58;100556.19;;;6.29;75.73
62011;BME280;47967;51.756;10.174;2023-02-19T20:58:02;100546.81;;;6.15;76.31
62011;BME280;47967;51.756;10.174;2023-02-19T21:02:07;100557.69;;;6.13;76.52
62011;BME280;47967;51.756;10.174;2023-02-19T21:06:10;100548.50;;;6.16;76.70
62011;BME280;47967;51.756;10.174;2023-02-19T21:10:13;100558.47;;;6.23;76.94
62011;BME280;47967;51.756;10.174;2023-02-19T21:14:17;100577.28;;;6.14;76.82
62011;BME280;47967;51.756;10.174;2023-02-19T21:18:19;100573.78;;;6.13;77.98
62011;BME280;47967;51.756;10.174;2023-02-19T21:22:22;100572.44;;;5.99;78.12
62011;BME280;47967;51.756;10.174;2023-02-19T21:26:32;100578.66;;;6.00;78.36
62011;BME280;47967;51.756;10.174;2023-02-19T21:30:36;100570.16;;;6.04;78.18
62011;BME280;47967;51.756;10.174;2023-02-19T21:34:39;100566.38;;;6.25;78.03
62011;BME280;47967;51.756;10.174;2023-02-19T21:38:41;100580.31;;;6.29;76.92
62011;BME280;47967;51.756;10.174;2023-02-19T21:42:44;100571.41;;;6.28;77.65
62011;BME280;47967;51.756;10.174;2023-02-19T21:46:48;100569.44;;;6.30;78.35
62011;BME280;47967;51.756;10.174;2023-02-19T21:50:50;100566.59;;;6.32;78.66
62011;BME280;47967;51.756;10.174;2023-02-19T21:54:53;100565.75;;;6.31;78.68
62011;BME280;47967;51.756;10.174;2023-02-19T21:58:56;100553.19;;;6.32;79.08
